createdAt,value
2022-12-23T21:33:59.348Z,11.74
2022-12-23T21:36:25.616Z,12.18
2022-12-23T21:38:55.057Z,12.40
2022-12-23T21:41:21.323Z,12.05
2022-12-23T21:43:59.709Z,12.34
2022-12-23T21:46:26.107Z,12.58
2022-12-23T21:54:26.228Z,12.31
2022-12-23T21:56:52.459Z,12.42
2022-12-23T21:59:18.620Z,12.35
2022-12-23T22:01:44.885Z,12.74
2022-12-23T22:04:11.208Z,12.74
2022-12-23T22:06:37.480Z,12.76
2022-12-23T22:09:03.699Z,12.88
2022-12-23T22:11:29.859Z,12.84
2022-12-23T22:13:56.046Z,10.87
2022-12-23T22:16:22.372Z,12.08
2022-12-23T22:18:48.615Z,11.95
2022-12-23T22:21:14.836Z,12.16
2022-12-23T22:23:41.001Z,12.03
2022-12-23T22:26:07.240Z,11.43
2022-12-23T22:28:33.463Z,10.76
2022-12-23T22:30:59.669Z,10.58
2022-12-23T22:33:25.878Z,10.50
2022-12-23T22:35:52.062Z,10.91
2022-12-23T22:38:18.254Z,11.19
2022-12-23T22:40:44.440Z,12.17
2022-12-23T22:43:10.611Z,11.46
2022-12-23T22:45:36.843Z,10.97
2022-12-23T22:48:04.008Z,11.57
2022-12-23T22:50:30.248Z,11.97
2022-12-23T22:52:56.509Z,11.84
2022-12-23T22:55:22.700Z,12.54
2022-12-23T22:57:48.926Z,12.85
2022-12-23T23:00:15.165Z,12.26
2022-12-23T23:02:41.357Z,11.55
2022-12-23T23:05:12.672Z,11.27
2022-12-23T23:07:39.349Z,11.49
2022-12-23T23:10:05.613Z,11.65
2022-12-23T23:12:31.830Z,12.25
2022-12-23T23:14:58.032Z,12.30
2022-12-23T23:17:24.256Z,12.35
2022-12-23T23:19:50.441Z,12.61
2022-12-23T23:22:16.654Z,12.56
2022-12-23T23:24:42.865Z,12.72
2022-12-23T23:27:10.948Z,12.88
2022-12-23T23:29:37.233Z,12.77
2022-12-23T23:32:03.487Z,12.15
2022-12-23T23:34:29.772Z,12.31
2022-12-23T23:36:58.857Z,12.11
2022-12-23T23:39:25.035Z,12.44
2022-12-23T23:41:51.190Z,12.63
2022-12-23T23:44:17.376Z,12.54
2022-12-23T23:46:43.633Z,11.47
2022-12-23T23:49:09.842Z,10.49
2022-12-23T23:51:36.012Z,10.78
2022-12-23T23:54:02.205Z,10.90
2022-12-23T23:56:33.916Z,10.94
2022-12-23T23:59:03.914Z,11.90
